Terminal Aerodrome Forecast
Issued by NWS

Home | Current Version | Previous Version | Text Only | Print | Product List | Glossary On
Versions: 1 2 3 4 5 6 7 8 9 10 11 12 13 14 15 16 17 18
000
FTUS43 KAPX 011720
TAFPLN
TAF
KPLN 011720Z 0118/0218 31008KT P6SM OVC008
     FM012000 33008KT P6SM OVC015
     FM012200 33009KT P6SM BKN025
     FM020000 33009KT P6SM SCT030
     FM020200 00000KT P6SM SKC
     FM021400 04006KT P6SM SKC=

USA.gov is the U.S. government's official web portal to all federal, state and local government web resources and services.